Terminal Aerodrome Forecast
Issued by NWS Lake Charles, LA

Home | Current Version | Previous Version | Text Only | Print | Product List | Glossary On
Versions: 1 2 3 4 5 6 7 8 9 10 11 12 13
000
FTUS44 KLCH 201136
TAFBPT
TAF
KBPT 201136Z 2012/2112 11006KT P6SM VCSH BKN020 OVC060
     FM201600 15012G18KT P6SM VCSH BKN025 OVC035
     FM210000 15010KT P6SM OVC015
     FM210600 15008KT 4SM BR OVC007=

USA.gov is the U.S. government's official web portal to all federal, state and local government web resources and services.